• Join FlightAware (Why Join?)
  • Login
  • US Flag 
05:26PM EST


 

Airport Tracker/Info


-or-


 

Live Flight TrackerFlight Track Log ✈ DAL1903 ✈ 26-Apr-2013 ✈ KLGA - KSRQ

Flight Track Log - Related Links

Times and Time Zones

All times are in EDT time to prevent confusion due to time zone crossing. See the DAL1903 flight status page for this flight to view local times or setup timezone preferences in your user account.

Time Position Orientation Groundspeed Altitude Reporting Facility
EDT Latitude Longitude Course Direction KTS MPH feet Rate Location/Type
11:32AM 40.8167 -73.8667 270° West 190 219 1,600  Level New York TRACON
11:33AM 40.8667 -73.9000 333° Northwest 227 261 4,700 2,880 Climbing New York TRACON
11:34AM 40.8333 -73.9667 237° Southwest 233 268 7,400 2,700 Climbing New York TRACON
11:35AM 40.3233 -74.0801 201° Southwest  Level FlightAware Approximate
11:35AM 40.7833 -74.0167 217° Southwest 269 310 10,200  Level New York TRACON
11:36AM 40.2121 -74.1379 217° Southwest  Level FlightAware Approximate
11:36AM 40.7167 -74.0667 210° Southwest 282 325 12,000  Level New York TRACON
11:37AM 40.1045 -74.1955 217° Southwest  Level FlightAware Approximate
11:37AM 40.6500 -74.1333 217° Southwest 282 325 12,700  Level New York TRACON
11:38AM 40.0000 -74.2466 270° West  Level FlightAware Approximate
11:38AM 40.5833 -74.1833 210° Southwest 284 327 13,000  Level New York TRACON
11:39AM 40.5667 -74.2667 255° West 272 313 13,000  Level New York TRACON
11:40AM 40.5333 -74.3667 246° West 277 319 13,000  Level New York TRACON
11:41AM 40.5000 -74.4167 229° Southwest 279 321 13,000  Level New York TRACON
11:42AM 40.4167 -74.4833 211° Southwest 294 338 13,000  Level New York TRACON
11:43AM 40.3667 -74.4167 135° Southeast 323 372 13,000  Level New York TRACON
11:44AM 40.3833 -74.3000 79° East 323 372 13,000 420 Level New York TRACON
11:45AM 40.4000 -74.1833 79° East 325 374 13,900 480 Climbing New York TRACON
11:46AM 40.4167 -74.0667 79° East 332 382 14,000  Climbing New York TRACON
11:47AM 40.3333 -74.0000 149° Southeast 318 366 14,000 420 Level New York TRACON
11:48AM 40.2500 -74.0000 180° South 306 352 14,900 1,380 Climbing New York TRACON
11:49AM 40.1992 -74.0564 220° Southwest 305 351 16,800 960 Climbing New York Center
11:51AM 40.0944 -74.1622 218° Southwest 307 353 17,500 720 Climbing Washington Center
11:52AM 40.0164 -74.2453 219° Southwest 337 388 18,800 1,680 Climbing Washington Center
11:53AM 39.9278 -74.3333 217° Southwest 362 417 21,000 1,980 Climbing Washington Center
11:54AM 39.8369 -74.4161 215° Southwest 381 438 22,800 1,560 Climbing Washington Center
11:56AM 39.6783 -74.6156 224° Southwest 398 458 25,800 1,260 Climbing Washington Center
11:57AM 39.5958 -74.7297 227° Southwest 417 480 26,700 1,200 Climbing Washington Center
11:58AM 39.5069 -74.8464 225° Southwest 441 507 28,300 1,500 Climbing Washington Center
11:59AM 39.4200 -74.9575 225° Southwest 441 507 29,800 1,380 Climbing Washington Center
12:00PM 39.3331 -75.0711 225° Southwest 441 507 31,100 1,080 Climbing Washington Center
12:01PM 39.2231 -75.1494 209° Southwest 441 507 32,000 420 Climbing Washington Center
12:02PM 39.1022 -75.1983 197° South 445 512 32,000 240 Level Washington Center
12:03PM 38.9775 -75.2525 199° South 456 525 32,600 780 Climbing Washington Center
12:04PM 38.8544 -75.3011 197° South 467 537 33,600 600 Climbing Washington Center
12:05PM 38.7358 -75.3494 198° South 467 537 33,900 180 Climbing Washington Center
12:06PM 38.6150 -75.4031 199° South 462 532 34,000  Climbing Washington Center
12:07PM 38.4919 -75.4539 198° South 462 532 34,000  Level Washington Center
12:08PM 38.3692 -75.4989 196° South 462 532 34,000  Level Washington Center
12:09PM 38.2564 -75.5758 208° Southwest 462 532 34,000  Level Washington Center
12:10PM 38.1503 -75.6525 210° Southwest 452 520 34,000  Level Washington Center
12:11PM 38.0439 -75.7314 210° Southwest 452 520 34,000  Level Washington Center
12:12PM 37.9353 -75.8078 209° Southwest 452 520 34,000  Level Washington Center
12:13PM 37.8244 -75.8808 208° Southwest 447 514 34,000  Level Washington Center
12:14PM 37.7200 -75.9647 212° Southwest 447 514 34,000  Level Washington Center
12:15PM 37.6114 -76.0428 210° Southwest 452 520 34,000  Level Washington Center
12:16PM 37.5025 -76.1153 208° Southwest 452 520 34,000  Level Washington Center
12:17PM 37.3917 -76.1878 207° Southwest 452 520 34,000  Level Washington Center
12:18PM 37.2808 -76.2653 209° Southwest 447 514 34,000  Level Washington Center
12:19PM 37.1697 -76.3400 208° Southwest 447 514 34,000  Level Washington Center
12:20PM 37.0608 -76.4169 209° Southwest 452 520 34,000  Level Washington Center
12:21PM 36.9539 -76.4936 210° Southwest 452 520 34,000  Level Washington Center
12:22PM 36.8489 -76.5731 211° Southwest 452 520 34,000  Level Washington Center
12:23PM 36.7481 -76.6678 217° Southwest 452 520 34,000  Level Washington Center
12:24PM 36.6511 -76.7594 217° Southwest 452 520 34,000  Level Washington Center
12:25PM 36.5522 -76.8486 216° Southwest 452 520 34,000  Level Washington Center
12:26PM 36.4511 -76.9400 216° Southwest 452 520 34,000  Level Washington Center
12:27PM 36.3625 -77.0236 217° Southwest 452 520 34,000  Level Washington Center
12:28PM 36.2633 -77.1119 216° Southwest 452 520 34,000  Level Washington Center
12:29PM 36.1617 -77.2128 219° Southwest 437 503 34,000  Level Washington Center
12:30PM 36.0603 -77.3033 216° Southwest 437 503 34,000  Level Washington Center
12:31PM 35.9631 -77.3908 216° Southwest 443 510 34,000  Level Washington Center
12:32PM 35.8658 -77.4811 217° Southwest 443 510 34,000  Level Washington Center
12:33PM 35.7769 -77.5583 215° Southwest 443 510 34,000  Level Washington Center
12:34PM 35.6794 -77.6453 216° Southwest 443 510 34,000  Level Washington Center
12:35PM 35.5839 -77.7322 217° Southwest 443 510 34,000  Level Washington Center
12:36PM 35.4864 -77.8164 215° Southwest 443 510 34,000  Level Washington Center
12:37PM 35.3889 -77.9003 215° Southwest 436 502 34,000  Level Washington Center
12:38PM 35.2933 -77.9867 216° Southwest 436 502 34,000  Level Washington Center
12:39PM 35.1956 -78.0703 215° Southwest 436 502 34,000  Level Washington Center
12:40PM 35.1000 -78.1561 216° Southwest 436 502 34,000  Level Washington Center
12:41PM 35.0022 -78.2417 216° Southwest 436 502 34,000  Level Washington Center
12:43PM 34.8325 -78.3933 216° Southwest 424 488 34,000  Level Jacksonville Center
12:44PM 34.7333 -78.4769 215° Southwest 429 494 34,000  Level Jacksonville Center
12:45PM 34.6361 -78.5625 216° Southwest 429 494 34,000  Level Jacksonville Center
12:47PM 34.4439 -78.7358 217° Southwest 434 499 34,000  Level Jacksonville Center
12:48PM 34.3464 -78.8211 216° Southwest 439 505 34,000  Level Jacksonville Center
12:49PM 34.2492 -78.9058 216° Southwest 439 505 34,000  Level Jacksonville Center
12:50PM 34.1475 -78.9883 214° Southwest 439 505 34,000  Level Jacksonville Center
12:51PM 34.0436 -79.0733 214° Southwest 439 505 34,000  Level Jacksonville Center
12:52PM 33.9439 -79.1578 215° Southwest 444 511 34,000  Level Jacksonville Center
12:53PM 33.8419 -79.2419 214° Southwest 444 511 34,000  Level Jacksonville Center
12:54PM 33.7422 -79.3261 215° Southwest 444 511 34,000  Level Jacksonville Center
12:55PM 33.6361 -79.4153 215° Southwest 436 502 34,000  Level Jacksonville Center
12:56PM 33.5383 -79.5011 216° Southwest 436 502 34,000 -60 Level Jacksonville Center
12:57PM 33.4383 -79.5847 215° Southwest 436 502 33,900  Descending Jacksonville Center
12:58PM 33.3383 -79.6681 215° Southwest 436 502 34,000  Climbing Jacksonville Center
12:59PM 33.2361 -79.7561 216° Southwest 441 507 34,000  Level Jacksonville Center
01:00PM 33.1339 -79.8392 214° Southwest 446 513 34,000  Level Jacksonville Center
01:01PM 33.0336 -79.9242 215° Southwest 446 513 34,000  Level Jacksonville Center
01:02PM 32.9353 -80.0117 217° Southwest 446 513 34,000 -60 Level Jacksonville Center
01:03PM 32.8456 -80.1061 221° Southwest 446 513 33,900  Descending Jacksonville Center
01:04PM 32.7681 -80.1922 223° Southwest 440 506 34,000  Climbing Jacksonville Center
01:05PM 32.6825 -80.2861 223° Southwest 434 499 34,000  Level Jacksonville Center
01:06PM 32.5947 -80.3825 223° Southwest 434 499 34,000  Level Jacksonville Center
01:07PM 32.5067 -80.4761 222° Southwest 434 499 34,000  Level Jacksonville Center
01:08PM 32.4186 -80.5694 222° Southwest 434 499 34,000  Level Jacksonville Center
01:09PM 32.3306 -80.6650 223° Southwest 434 499 34,000  Level Jacksonville Center
01:10PM 32.2447 -80.7581 223° Southwest 434 499 34,000  Level Jacksonville Center
01:11PM 32.1481 -80.8608 222° Southwest 434 499 34,000  Level Jacksonville Center
01:12PM 32.0578 -80.9536 221° Southwest 435 501 34,000  Level Jacksonville Center
01:13PM 31.9711 -81.0314 217° Southwest 435 501 34,000  Level Jacksonville Center
01:14PM 31.8619 -81.1192 214° Southwest 448 516 34,000  Level Jacksonville Center
01:15PM 31.7606 -81.1969 213° Southwest 435 501 34,000  Level Jacksonville Center
01:16PM 31.6717 -81.2692 215° Southwest 435 501 34,000  Level Jacksonville Center
01:17PM 31.5622 -81.3542 214° Southwest 435 501 34,000  Level Jacksonville Center
01:18PM 31.4608 -81.4311 213° Southwest 435 501 34,000  Level Jacksonville Center
01:19PM 31.3717 -81.5008 214° Southwest 435 501 34,000  Level Jacksonville Center
01:20PM 31.2703 -81.5872 216° Southwest 441 507 34,000  Level Jacksonville Center
01:21PM 31.1689 -81.6592 211° Southwest 441 507 34,000  Level Jacksonville Center
01:22PM 31.0503 -81.7142 202° Southwest 435 501 34,000  Level Jacksonville Center
01:23PM 30.9317 -81.7592 198° South 445 512 34,000 -60 Level Jacksonville Center
01:24PM 30.8111 -81.8089 200° South 457 526 33,900  Descending Jacksonville Center
01:25PM 30.6925 -81.8611 201° Southwest 457 526 34,000  Climbing Jacksonville Center
01:26PM 30.5739 -81.9106 200° South 462 532 33,900  Descending Jacksonville Center
01:27PM 30.4511 -81.9553 197° South 462 532 34,000  Climbing Jacksonville Center
01:28PM 30.3322 -82.0044 200° South 462 532 34,000  Level Jacksonville Center
01:29PM 30.2136 -82.0536 200° South 462 532 34,000 -120 Level Jacksonville Center
01:30PM 30.0950 -82.1028 200° South 462 532 33,800 -1,140 Descending Jacksonville Center
01:31PM 29.9597 -82.1614 201° Southwest 468 539 31,800 -1,800 Descending Jacksonville Center
01:32PM 29.8408 -82.2125 200° South 468 539 30,300 -2,100 Descending Jacksonville Center
01:33PM 29.7347 -82.2517 198° South 468 539 27,600 -1,680 Descending Jacksonville Center
01:34PM 29.6011 -82.2594 183° South 468 539 27,000 -1,200 Descending Jacksonville Center
01:35PM 29.4672 -82.2414 173° South 474 545 25,300 -2,220 Descending Jacksonville Center
01:36PM 29.3419 -82.2208 172° South 474 545 22,600 -2,400 Descending Jacksonville Center
01:37PM 29.2186 -82.2003 172° South 462 532 20,500 -1,980 Descending Jacksonville Center
01:38PM 29.0997 -82.1844 173° South 451 519 18,700 -1,560 Descending Jacksonville Center
01:39PM 28.9806 -82.1639 171° South 443 510 17,400 -1,500 Descending Jacksonville Center
01:40PM 28.8531 -82.1458 173° South 436 502 15,700 -1,680 Descending Jacksonville Center
01:41PM 28.7342 -82.1303 173° South 430 495 14,100 -1,500 Descending Jacksonville Center
01:43PM 28.5000 -82.1000 174° South 398 458 11,200 -1,080 Descending Tampa TRACON
01:44PM 28.4000 -82.0833 172° South 391 450 11,000 -120 Descending Tampa TRACON
01:45PM 28.3000 -82.0667 172° South 388 447 11,000  Level Tampa TRACON
01:45PM 28.2000 -82.0500 172° South 386 444 11,000 -300 Level Tampa TRACON
01:47PM 28.0833 -82.0333 173° South 373 429 10,400 -480 Descending Tampa TRACON
01:48PM 28.0000 -82.0167 170° South 312 359 10,000 -1,020 Descending Tampa TRACON
01:49PM 27.9333 -82.0667 214° Southwest 293 337 8,400 -1,680 Descending Tampa TRACON
01:50PM 27.8667 -82.1333 221° Southwest 289 333 6,700 -1,200 Descending Tampa TRACON
01:51PM 27.8000 -82.2000 222° Southwest 287 330 6,000 -420 Descending Tampa TRACON
01:51PM 27.7500 -82.2500 222° Southwest 288 331 6,000  Level Tampa TRACON
01:52PM 27.7000 -82.3000 222° Southwest 284 327 6,000 -60 Level Tampa TRACON
01:54PM 27.6333 -82.3667 222° Southwest 288 331 5,900 -600 Descending Tampa TRACON
01:55PM 27.5500 -82.4000 200° South 280 322 4,800 -960 Descending Tampa TRACON
01:56PM 27.4833 -82.4333 204° Southwest 271 312 4,000 -1,200 Descending Tampa TRACON
01:57PM 27.4000 -82.4333 180° South 260 299 2,300 -1,140 Descending Tampa TRACON
01:58PM 27.3500 -82.4500 196° South 217 250 1,800 -600 Descending Tampa TRACON